sensor_id;sensor_type;location;lat;lon;timestamp;temperature;humidity
53978;DHT22;39886;47.984;-1.586;2022-07-23T00:01:03;25.60;55.30
53978;DHT22;39886;47.984;-1.586;2022-07-23T00:03:28;25.60;55.30
53978;DHT22;39886;47.984;-1.586;2022-07-23T00:05:54;25.60;55.30
53978;DHT22;39886;47.984;-1.586;2022-07-23T00:08:20;25.60;55.30
53978;DHT22;39886;47.984;-1.586;2022-07-23T00:10:46;25.60;55.30
53978;DHT22;39886;47.984;-1.586;2022-07-23T00:13:12;25.60;55.30
53978;DHT22;39886;47.984;-1.586;2022-07-23T00:15:38;25.60;55.30
53978;DHT22;39886;47.984;-1.586;2022-07-23T00:18:04;25.60;55.30
53978;DHT22;39886;47.984;-1.586;2022-07-23T00:20:29;25.60;55.40
53978;DHT22;39886;47.984;-1.586;2022-07-23T00:22:55;25.50;55.30
53978;DHT22;39886;47.984;-1.586;2022-07-23T00:25:22;25.50;55.30
53978;DHT22;39886;47.984;-1.586;2022-07-23T00:27:48;25.50;55.30
53978;DHT22;39886;47.984;-1.586;2022-07-23T00:30:14;25.50;55.30
53978;DHT22;39886;47.984;-1.586;2022-07-23T00:32:54;25.50;55.30
53978;DHT22;39886;47.984;-1.586;2022-07-23T00:35:22;25.50;55.40
53978;DHT22;39886;47.984;-1.586;2022-07-23T00:37:48;25.50;55.40
53978;DHT22;39886;47.984;-1.586;2022-07-23T00:40:14;25.50;55.40
53978;DHT22;39886;47.984;-1.586;2022-07-23T00:42:40;25.50;55.40
53978;DHT22;39886;47.984;-1.586;2022-07-23T00:45:07;25.50;55.40
53978;DHT22;39886;47.984;-1.586;2022-07-23T00:47:33;25.50;55.40
53978;DHT22;39886;47.984;-1.586;2022-07-23T00:49:59;25.50;55.40
53978;DHT22;39886;47.984;-1.586;2022-07-23T00:52:25;25.50;55.40
53978;DHT22;39886;47.984;-1.586;2022-07-23T00:54:51;25.40;55.30
53978;DHT22;39886;47.984;-1.586;2022-07-23T00:57:17;25.40;55.30
53978;DHT22;39886;47.984;-1.586;2022-07-23T00:59:44;25.50;55.40
53978;DHT22;39886;47.984;-1.586;2022-07-23T01:02:10;25.40;55.30
53978;DHT22;39886;47.984;-1.586;2022-07-23T01:04:36;25.40;55.40
53978;DHT22;39886;47.984;-1.586;2022-07-23T01:07:02;25.40;55.40
53978;DHT22;39886;47.984;-1.586;2022-07-23T01:09:27;25.40;55.40
53978;DHT22;39886;47.984;-1.586;2022-07-23T01:11:56;25.40;55.40
53978;DHT22;39886;47.984;-1.586;2022-07-23T01:14:22;25.40;55.40
53978;DHT22;39886;47.984;-1.586;2022-07-23T01:16:49;25.40;55.40
53978;DHT22;39886;47.984;-1.586;2022-07-23T01:19:16;25.40;55.40
53978;DHT22;39886;47.984;-1.586;2022-07-23T01:21:44;25.30;55.40
53978;DHT22;39886;47.984;-1.586;2022-07-23T01:24:11;25.40;55.50
53978;DHT22;39886;47.984;-1.586;2022-07-23T01:26:38;25.40;55.50
53978;DHT22;39886;47.984;-1.586;2022-07-23T01:29:04;25.40;55.50
53978;DHT22;39886;47.984;-1.586;2022-07-23T01:31:30;25.40;55.50
53978;DHT22;39886;47.984;-1.586;2022-07-23T01:33:56;25.40;55.50
53978;DHT22;39886;47.984;-1.586;2022-07-23T01:36:22;25.30;55.40
53978;DHT22;39886;47.984;-1.586;2022-07-23T01:38:48;25.30;55.40
53978;DHT22;39886;47.984;-1.586;2022-07-23T01:41:14;25.30;55.40
53978;DHT22;39886;47.984;-1.586;2022-07-23T01:43:40;25.30;55.40
53978;DHT22;39886;47.984;-1.586;2022-07-23T01:46:06;25.30;55.40
53978;DHT22;39886;47.984;-1.586;2022-07-23T01:48:31;25.30;55.40
53978;DHT22;39886;47.984;-1.586;2022-07-23T01:50:57;25.30;55.40
53978;DHT22;39886;47.984;-1.586;2022-07-23T01:53:23;25.30;55.50
53978;DHT22;39886;47.984;-1.586;2022-07-23T01:55:49;25.30;55.50
53978;DHT22;39886;47.984;-1.586;2022-07-23T01:58:14;25.30;55.50
53978;DHT22;39886;47.984;-1.586;2022-07-23T02:00:40;25.30;55.50
53978;DHT22;39886;47.984;-1.586;2022-07-23T02:03:06;25.30;55.40
53978;DHT22;39886;47.984;-1.586;2022-07-23T02:05:32;25.30;55.50
53978;DHT22;39886;47.984;-1.586;2022-07-23T02:07:59;25.20;55.40
53978;DHT22;39886;47.984;-1.586;2022-07-23T02:10:25;25.20;55.40
53978;DHT22;39886;47.984;-1.586;2022-07-23T02:12:51;25.20;55.50
53978;DHT22;39886;47.984;-1.586;2022-07-23T02:15:17;25.20;55.40
53978;DHT22;39886;47.984;-1.586;2022-07-23T02:17:43;25.20;55.40
53978;DHT22;39886;47.984;-1.586;2022-07-23T02:20:09;25.20;55.50
53978;DHT22;39886;47.984;-1.586;2022-07-23T02:22:36;25.20;55.40
53978;DHT22;39886;47.984;-1.586;2022-07-23T02:25:03;25.20;55.50
53978;DHT22;39886;47.984;-1.586;2022-07-23T02:27:29;25.20;55.50
53978;DHT22;39886;47.984;-1.586;2022-07-23T02:29:54;25.20;55.50
53978;DHT22;39886;47.984;-1.586;2022-07-23T02:32:20;25.20;55.50
53978;DHT22;39886;47.984;-1.586;2022-07-23T02:34:49;25.20;55.50
53978;DHT22;39886;47.984;-1.586;2022-07-23T02:37:15;25.20;55.50
53978;DHT22;39886;47.984;-1.586;2022-07-23T02:39:40;25.20;55.50
53978;DHT22;39886;47.984;-1.586;2022-07-23T02:42:07;25.20;55.50
53978;DHT22;39886;47.984;-1.586;2022-07-23T02:44:33;25.20;55.50
53978;DHT22;39886;47.984;-1.586;2022-07-23T02:46:59;25.10;55.40
53978;DHT22;39886;47.984;-1.586;2022-07-23T02:49:24;25.20;55.50
53978;DHT22;39886;47.984;-1.586;2022-07-23T02:51:50;25.20;55.50
53978;DHT22;39886;47.984;-1.586;2022-07-23T02:54:16;25.20;55.50
53978;DHT22;39886;47.984;-1.586;2022-07-23T02:56:42;25.10;55.50
53978;DHT22;39886;47.984;-1.586;2022-07-23T02:59:08;25.20;55.50
53978;DHT22;39886;47.984;-1.586;2022-07-23T03:01:34;25.10;55.50
53978;DHT22;39886;47.984;-1.586;2022-07-23T03:04:00;25.10;55.50
53978;DHT22;39886;47.984;-1.586;2022-07-23T03:06:26;25.10;55.50
53978;DHT22;39886;47.984;-1.586;2022-07-23T03:08:51;25.10;55.50
53978;DHT22;39886;47.984;-1.586;2022-07-23T03:11:17;25.10;55.50
53978;DHT22;39886;47.984;-1.586;2022-07-23T03:13:43;25.10;55.50
53978;DHT22;39886;47.984;-1.586;2022-07-23T03:16:09;25.10;55.50
53978;DHT22;39886;47.984;-1.586;2022-07-23T03:18:35;25.10;55.50
53978;DHT22;39886;47.984;-1.586;2022-07-23T03:21:01;25.10;55.50
53978;DHT22;39886;47.984;-1.586;2022-07-23T03:23:26;25.10;55.60
53978;DHT22;39886;47.984;-1.586;2022-07-23T03:25:52;25.00;55.50
53978;DHT22;39886;47.984;-1.586;2022-07-23T03:28:18;25.10;55.50
53978;DHT22;39886;47.984;-1.586;2022-07-23T03:30:45;25.10;55.50
53978;DHT22;39886;47.984;-1.586;2022-07-23T03:33:14;25.10;55.60
53978;DHT22;39886;47.984;-1.586;2022-07-23T03:35:42;25.00;55.50
53978;DHT22;39886;47.984;-1.586;2022-07-23T03:38:08;25.00;55.50
53978;DHT22;39886;47.984;-1.586;2022-07-23T03:40:33;25.00;55.50
53978;DHT22;39886;47.984;-1.586;2022-07-23T03:42:59;25.00;55.50
53978;DHT22;39886;47.984;-1.586;2022-07-23T03:45:25;25.00;55.50
53978;DHT22;39886;47.984;-1.586;2022-07-23T03:47:51;25.00;55.60
53978;DHT22;39886;47.984;-1.586;2022-07-23T03:50:16;25.00;55.50
53978;DHT22;39886;47.984;-1.586;2022-07-23T03:52:42;25.00;55.50
53978;DHT22;39886;47.984;-1.586;2022-07-23T03:55:08;25.00;55.50
53978;DHT22;39886;47.984;-1.586;2022-07-23T03:57:34;25.00;55.50
53978;DHT22;39886;47.984;-1.586;2022-07-23T04:00:00;25.00;55.50
53978;DHT22;39886;47.984;-1.586;2022-07-23T04:02:26;25.00;55.50
53978;DHT22;39886;47.984;-1.586;2022-07-23T04:04:52;25.00;55.50
53978;DHT22;39886;47.984;-1.586;2022-07-23T04:07:17;25.00;55.50
53978;DHT22;39886;47.984;-1.586;2022-07-23T04:09:44;25.00;55.50
53978;DHT22;39886;47.984;-1.586;2022-07-23T04:12:10;25.00;55.60
53978;DHT22;39886;47.984;-1.586;2022-07-23T04:14:35;25.00;55.50
53978;DHT22;39886;47.984;-1.586;2022-07-23T04:17:02;25.00;55.50
53978;DHT22;39886;47.984;-1.586;2022-07-23T04:19:27;25.00;55.50
53978;DHT22;39886;47.984;-1.586;2022-07-23T04:21:56;25.00;55.60
53978;DHT22;39886;47.984;-1.586;2022-07-23T04:24:21;24.90;55.60
53978;DHT22;39886;47.984;-1.586;2022-07-23T04:26:47;24.90;55.60
53978;DHT22;39886;47.984;-1.586;2022-07-23T04:29:13;25.00;55.60
53978;DHT22;39886;47.984;-1.586;2022-07-23T04:31:39;24.90;55.50
53978;DHT22;39886;47.984;-1.586;2022-07-23T04:34:04;24.90;55.60
53978;DHT22;39886;47.984;-1.586;2022-07-23T04:36:30;24.90;55.50
53978;DHT22;39886;47.984;-1.586;2022-07-23T04:38:56;24.90;55.50
53978;DHT22;39886;47.984;-1.586;2022-07-23T04:41:22;24.90;55.60
53978;DHT22;39886;47.984;-1.586;2022-07-23T04:43:48;24.90;55.60
53978;DHT22;39886;47.984;-1.586;2022-07-23T04:46:13;24.90;55.60
53978;DHT22;39886;47.984;-1.586;2022-07-23T04:48:39;24.90;55.60
53978;DHT22;39886;47.984;-1.586;2022-07-23T04:51:05;24.90;55.60
53978;DHT22;39886;47.984;-1.586;2022-07-23T04:53:31;24.90;55.60
53978;DHT22;39886;47.984;-1.586;2022-07-23T04:55:57;24.90;55.60
53978;DHT22;39886;47.984;-1.586;2022-07-23T04:58:23;24.80;55.50
53978;DHT22;39886;47.984;-1.586;2022-07-23T05:00:48;24.90;55.60
53978;DHT22;39886;47.984;-1.586;2022-07-23T05:03:14;24.80;55.50
53978;DHT22;39886;47.984;-1.586;2022-07-23T05:05:40;24.80;55.50
53978;DHT22;39886;47.984;-1.586;2022-07-23T05:08:06;24.90;55.60
53978;DHT22;39886;47.984;-1.586;2022-07-23T05:10:32;24.90;55.50
53978;DHT22;39886;47.984;-1.586;2022-07-23T05:12:57;24.90;55.50
53978;DHT22;39886;47.984;-1.586;2022-07-23T05:15:23;24.90;55.50
53978;DHT22;39886;47.984;-1.586;2022-07-23T05:17:49;24.90;55.50
53978;DHT22;39886;47.984;-1.586;2022-07-23T05:20:15;24.90;55.40
53978;DHT22;39886;47.984;-1.586;2022-07-23T05:22:41;24.90;55.50
53978;DHT22;39886;47.984;-1.586;2022-07-23T05:25:07;24.90;55.50
53978;DHT22;39886;47.984;-1.586;2022-07-23T05:27:33;24.90;55.40
53978;DHT22;39886;47.984;-1.586;2022-07-23T05:29:59;24.90;55.40
53978;DHT22;39886;47.984;-1.586;2022-07-23T05:32:25;24.90;55.40
53978;DHT22;39886;47.984;-1.586;2022-07-23T05:34:51;24.90;55.40
53978;DHT22;39886;47.984;-1.586;2022-07-23T05:37:17;24.90;55.40
53978;DHT22;39886;47.984;-1.586;2022-07-23T05:39:42;25.00;55.40
53978;DHT22;39886;47.984;-1.586;2022-07-23T05:42:08;25.00;55.30
53978;DHT22;39886;47.984;-1.586;2022-07-23T05:44:34;25.00;55.30
53978;DHT22;39886;47.984;-1.586;2022-07-23T05:47:00;25.00;55.30
53978;DHT22;39886;47.984;-1.586;2022-07-23T05:49:26;25.00;55.30
53978;DHT22;39886;47.984;-1.586;2022-07-23T05:51:51;25.00;55.30
53978;DHT22;39886;47.984;-1.586;2022-07-23T05:54:17;25.00;55.20
53978;DHT22;39886;47.984;-1.586;2022-07-23T05:56:43;25.00;55.20
53978;DHT22;39886;47.984;-1.586;2022-07-23T05:59:09;25.00;55.20
53978;DHT22;39886;47.984;-1.586;2022-07-23T06:01:34;25.00;55.20
53978;DHT22;39886;47.984;-1.586;2022-07-23T06:04:00;25.10;55.20
53978;DHT22;39886;47.984;-1.586;2022-07-23T06:06:26;25.10;55.10
53978;DHT22;39886;47.984;-1.586;2022-07-23T06:08:52;25.10;55.10
53978;DHT22;39886;47.984;-1.586;2022-07-23T06:11:18;25.10;55.10
53978;DHT22;39886;47.984;-1.586;2022-07-23T06:13:43;25.20;55.20
53978;DHT22;39886;47.984;-1.586;2022-07-23T06:16:09;25.20;55.20
53978;DHT22;39886;47.984;-1.586;2022-07-23T06:18:35;25.20;55.30
53978;DHT22;39886;47.984;-1.586;2022-07-23T06:21:01;25.20;55.10
53978;DHT22;39886;47.984;-1.586;2022-07-23T06:23:26;25.30;55.10
53978;DHT22;39886;47.984;-1.586;2022-07-23T06:25:52;25.30;55.10
53978;DHT22;39886;47.984;-1.586;2022-07-23T06:28:18;25.30;55.00
53978;DHT22;39886;47.984;-1.586;2022-07-23T06:30:43;25.30;55.00
53978;DHT22;39886;47.984;-1.586;2022-07-23T06:33:09;25.40;55.00
53978;DHT22;39886;47.984;-1.586;2022-07-23T06:35:37;25.40;55.00
53978;DHT22;39886;47.984;-1.586;2022-07-23T06:38:02;25.40;54.90
53978;DHT22;39886;47.984;-1.586;2022-07-23T06:40:28;25.40;54.90
53978;DHT22;39886;47.984;-1.586;2022-07-23T06:42:54;25.40;54.90
53978;DHT22;39886;47.984;-1.586;2022-07-23T06:45:20;25.50;54.80
53978;DHT22;39886;47.984;-1.586;2022-07-23T06:47:45;25.50;54.80
53978;DHT22;39886;47.984;-1.586;2022-07-23T06:50:11;25.60;54.80
53978;DHT22;39886;47.984;-1.586;2022-07-23T06:52:37;25.60;54.80
53978;DHT22;39886;47.984;-1.586;2022-07-23T06:55:03;25.60;54.80
53978;DHT22;39886;47.984;-1.586;2022-07-23T06:57:29;25.60;54.70
53978;DHT22;39886;47.984;-1.586;2022-07-23T06:59:54;25.60;54.70
53978;DHT22;39886;47.984;-1.586;2022-07-23T07:02:20;25.70;54.70
53978;DHT22;39886;47.984;-1.586;2022-07-23T07:04:46;25.70;54.70
53978;DHT22;39886;47.984;-1.586;2022-07-23T07:07:11;25.70;54.60
53978;DHT22;39886;47.984;-1.586;2022-07-23T07:09:38;25.80;54.60
53978;DHT22;39886;47.984;-1.586;2022-07-23T07:12:04;25.80;54.60
53978;DHT22;39886;47.984;-1.586;2022-07-23T07:14:30;25.80;54.50
53978;DHT22;39886;47.984;-1.586;2022-07-23T07:16:56;25.80;54.40
53978;DHT22;39886;47.984;-1.586;2022-07-23T07:19:21;25.90;54.50
53978;DHT22;39886;47.984;-1.586;2022-07-23T07:21:47;25.90;54.40
53978;DHT22;39886;47.984;-1.586;2022-07-23T07:24:13;25.90;54.30
53978;DHT22;39886;47.984;-1.586;2022-07-23T07:26:39;25.90;54.30
53978;DHT22;39886;47.984;-1.586;2022-07-23T07:29:05;26.00;54.30
53978;DHT22;39886;47.984;-1.586;2022-07-23T07:31:31;26.00;54.20
53978;DHT22;39886;47.984;-1.586;2022-07-23T07:33:57;26.00;54.20
53978;DHT22;39886;47.984;-1.586;2022-07-23T07:36:24;26.10;54.20
53978;DHT22;39886;47.984;-1.586;2022-07-23T07:38:50;26.10;54.20
53978;DHT22;39886;47.984;-1.586;2022-07-23T07:41:16;26.10;54.10
53978;DHT22;39886;47.984;-1.586;2022-07-23T07:43:42;26.20;54.10
53978;DHT22;39886;47.984;-1.586;2022-07-23T07:46:08;26.20;54.80
53978;DHT22;39886;47.984;-1.586;2022-07-23T07:48:38;26.20;54.10
53978;DHT22;39886;47.984;-1.586;2022-07-23T07:51:04;26.20;54.00
53978;DHT22;39886;47.984;-1.586;2022-07-23T07:53:30;26.20;54.00
53978;DHT22;39886;47.984;-1.586;2022-07-23T07:55:56;26.30;54.00
53978;DHT22;39886;47.984;-1.586;2022-07-23T07:58:22;26.30;54.00
53978;DHT22;39886;47.984;-1.586;2022-07-23T08:00:48;26.30;54.00
53978;DHT22;39886;47.984;-1.586;2022-07-23T08:03:14;26.30;53.90
53978;DHT22;39886;47.984;-1.586;2022-07-23T08:05:39;26.30;53.90
53978;DHT22;39886;47.984;-1.586;2022-07-23T08:08:05;26.40;53.90
53978;DHT22;39886;47.984;-1.586;2022-07-23T08:10:31;26.40;53.90
53978;DHT22;39886;47.984;-1.586;2022-07-23T08:12:58;26.40;53.80
53978;DHT22;39886;47.984;-1.586;2022-07-23T08:15:25;26.40;53.70
53978;DHT22;39886;47.984;-1.586;2022-07-23T08:17:51;26.50;53.70
53978;DHT22;39886;47.984;-1.586;2022-07-23T08:20:18;26.50;53.60
53978;DHT22;39886;47.984;-1.586;2022-07-23T08:22:56;26.50;53.60
53978;DHT22;39886;47.984;-1.586;2022-07-23T08:25:24;26.50;53.60
53978;DHT22;39886;47.984;-1.586;2022-07-23T08:27:50;26.60;53.70
53978;DHT22;39886;47.984;-1.586;2022-07-23T08:30:17;26.60;53.60
53978;DHT22;39886;47.984;-1.586;2022-07-23T08:33:01;26.60;53.60
53978;DHT22;39886;47.984;-1.586;2022-07-23T08:35:34;26.70;53.50
53978;DHT22;39886;47.984;-1.586;2022-07-23T08:38:03;26.70;53.40
53978;DHT22;39886;47.984;-1.586;2022-07-23T08:40:31;26.70;53.50
53978;DHT22;39886;47.984;-1.586;2022-07-23T08:42:57;26.70;53.40
53978;DHT22;39886;47.984;-1.586;2022-07-23T08:45:24;26.80;53.40
53978;DHT22;39886;47.984;-1.586;2022-07-23T08:47:52;26.80;53.40
53978;DHT22;39886;47.984;-1.586;2022-07-23T08:50:18;26.80;53.30
53978;DHT22;39886;47.984;-1.586;2022-07-23T08:52:44;26.80;53.30
53978;DHT22;39886;47.984;-1.586;2022-07-23T08:55:10;26.90;53.30
53978;DHT22;39886;47.984;-1.586;2022-07-23T08:57:36;26.90;53.20
53978;DHT22;39886;47.984;-1.586;2022-07-23T09:00:04;26.90;53.10
53978;DHT22;39886;47.984;-1.586;2022-07-23T09:02:30;26.90;53.10
53978;DHT22;39886;47.984;-1.586;2022-07-23T09:04:56;26.90;53.00
53978;DHT22;39886;47.984;-1.586;2022-07-23T09:07:22;27.00;53.10
53978;DHT22;39886;47.984;-1.586;2022-07-23T09:10:05;27.00;53.00
53978;DHT22;39886;47.984;-1.586;2022-07-23T09:12:31;27.10;52.90
53978;DHT22;39886;47.984;-1.586;2022-07-23T09:15:06;27.10;52.90
53978;DHT22;39886;47.984;-1.586;2022-07-23T09:17:40;27.10;52.80
53978;DHT22;39886;47.984;-1.586;2022-07-23T09:20:15;27.20;52.80
53978;DHT22;39886;47.984;-1.586;2022-07-23T09:22:47;27.20;52.80
53978;DHT22;39886;47.984;-1.586;2022-07-23T09:25:18;27.20;52.70
53978;DHT22;39886;47.984;-1.586;2022-07-23T09:30:16;27.20;52.70
53978;DHT22;39886;47.984;-1.586;2022-07-23T09:32:42;27.20;52.70
53978;DHT22;39886;47.984;-1.586;2022-07-23T09:35:08;27.30;52.70
53978;DHT22;39886;47.984;-1.586;2022-07-23T09:37:34;27.30;52.70
53978;DHT22;39886;47.984;-1.586;2022-07-23T09:40:08;27.30;52.60
53978;DHT22;39886;47.984;-1.586;2022-07-23T09:42:35;27.30;52.60
53978;DHT22;39886;47.984;-1.586;2022-07-23T09:45:01;27.30;52.50
53978;DHT22;39886;47.984;-1.586;2022-07-23T09:47:29;27.40;52.50
53978;DHT22;39886;47.984;-1.586;2022-07-23T09:52:37;27.40;52.40
53978;DHT22;39886;47.984;-1.586;2022-07-23T09:55:08;27.40;52.30
53978;DHT22;39886;47.984;-1.586;2022-07-23T09:57:34;27.50;52.40
53978;DHT22;39886;47.984;-1.586;2022-07-23T10:00:02;27.50;52.40
53978;DHT22;39886;47.984;-1.586;2022-07-23T10:02:32;27.50;52.30
53978;DHT22;39886;47.984;-1.586;2022-07-23T10:04:59;27.50;52.20
53978;DHT22;39886;47.984;-1.586;2022-07-23T10:07:26;27.50;52.20
53978;DHT22;39886;47.984;-1.586;2022-07-23T10:09:52;27.50;52.10
53978;DHT22;39886;47.984;-1.586;2022-07-23T10:12:19;27.60;52.20
53978;DHT22;39886;47.984;-1.586;2022-07-23T10:14:48;27.60;52.20
53978;DHT22;39886;47.984;-1.586;2022-07-23T10:17:15;27.60;52.10
53978;DHT22;39886;47.984;-1.586;2022-07-23T10:19:41;27.60;52.10
53978;DHT22;39886;47.984;-1.586;2022-07-23T10:22:19;27.60;52.10
53978;DHT22;39886;47.984;-1.586;2022-07-23T10:24:58;27.60;52.10
53978;DHT22;39886;47.984;-1.586;2022-07-23T10:36:12;27.70;52.20
53978;DHT22;39886;47.984;-1.586;2022-07-23T10:39:05;27.70;52.10
53978;DHT22;39886;47.984;-1.586;2022-07-23T10:41:38;27.70;52.30
53978;DHT22;39886;47.984;-1.586;2022-07-23T10:44:12;27.70;52.20
53978;DHT22;39886;47.984;-1.586;2022-07-23T10:49:37;27.70;52.20
53978;DHT22;39886;47.984;-1.586;2022-07-23T10:54:43;27.70;52.20
53978;DHT22;39886;47.984;-1.586;2022-07-23T10:57:11;27.70;52.20
53978;DHT22;39886;47.984;-1.586;2022-07-23T11:02:48;27.70;52.10
53978;DHT22;39886;47.984;-1.586;2022-07-23T11:05:16;27.70;52.10
53978;DHT22;39886;47.984;-1.586;2022-07-23T11:10:36;27.70;52.10
53978;DHT22;39886;47.984;-1.586;2022-07-23T11:24:07;27.80;52.00
53978;DHT22;39886;47.984;-1.586;2022-07-23T11:26:49;27.80;51.90
53978;DHT22;39886;47.984;-1.586;2022-07-23T11:37:04;27.80;51.90
53978;DHT22;39886;47.984;-1.586;2022-07-23T11:39:32;27.80;51.80
53978;DHT22;39886;47.984;-1.586;2022-07-23T11:41:59;27.80;51.80
53978;DHT22;39886;47.984;-1.586;2022-07-23T11:44:33;27.80;51.90
53978;DHT22;39886;47.984;-1.586;2022-07-23T11:47:01;27.80;51.80
53978;DHT22;39886;47.984;-1.586;2022-07-23T11:49:27;27.80;51.80
53978;DHT22;39886;47.984;-1.586;2022-07-23T11:52:07;27.80;51.70
53978;DHT22;39886;47.984;-1.586;2022-07-23T11:54:35;27.80;51.70
53978;DHT22;39886;47.984;-1.586;2022-07-23T11:57:02;27.80;51.70
53978;DHT22;39886;47.984;-1.586;2022-07-23T11:59:32;27.80;51.70
53978;DHT22;39886;47.984;-1.586;2022-07-23T12:02:03;27.80;51.70
53978;DHT22;39886;47.984;-1.586;2022-07-23T12:04:48;27.80;51.60
53978;DHT22;39886;47.984;-1.586;2022-07-23T12:07:34;27.80;51.60
53978;DHT22;39886;47.984;-1.586;2022-07-23T12:10:16;27.80;51.60
53978;DHT22;39886;47.984;-1.586;2022-07-23T12:12:46;27.80;51.70
53978;DHT22;39886;47.984;-1.586;2022-07-23T12:15:15;27.80;51.70
53978;DHT22;39886;47.984;-1.586;2022-07-23T12:17:44;27.80;51.70
53978;DHT22;39886;47.984;-1.586;2022-07-23T12:20:16;27.80;51.70
53978;DHT22;39886;47.984;-1.586;2022-07-23T12:22:45;27.80;51.60
53978;DHT22;39886;47.984;-1.586;2022-07-23T12:25:17;27.80;51.60
53978;DHT22;39886;47.984;-1.586;2022-07-23T12:27:44;27.80;51.60
53978;DHT22;39886;47.984;-1.586;2022-07-23T12:32:51;27.80;51.50
53978;DHT22;39886;47.984;-1.586;2022-07-23T12:35:17;27.80;51.60
53978;DHT22;39886;47.984;-1.586;2022-07-23T12:37:45;27.80;51.50
53978;DHT22;39886;47.984;-1.586;2022-07-23T12:40:32;27.80;51.60
53978;DHT22;39886;47.984;-1.586;2022-07-23T12:43:00;27.80;51.50
53978;DHT22;39886;47.984;-1.586;2022-07-23T12:45:28;27.80;51.50
53978;DHT22;39886;47.984;-1.586;2022-07-23T12:48:06;27.80;51.50
53978;DHT22;39886;47.984;-1.586;2022-07-23T12:50:39;27.80;51.40
53978;DHT22;39886;47.984;-1.586;2022-07-23T12:53:08;27.80;51.40
53978;DHT22;39886;47.984;-1.586;2022-07-23T12:55:35;27.80;51.40
53978;DHT22;39886;47.984;-1.586;2022-07-23T12:58:16;27.80;51.40
53978;DHT22;39886;47.984;-1.586;2022-07-23T13:00:59;27.80;51.30
53978;DHT22;39886;47.984;-1.586;2022-07-23T13:05:54;27.80;51.20
53978;DHT22;39886;47.984;-1.586;2022-07-23T13:08:21;27.80;51.20
53978;DHT22;39886;47.984;-1.586;2022-07-23T13:10:47;27.80;51.20
53978;DHT22;39886;47.984;-1.586;2022-07-23T13:13:15;27.80;51.20
53978;DHT22;39886;47.984;-1.586;2022-07-23T13:15:42;27.80;51.30
53978;DHT22;39886;47.984;-1.586;2022-07-23T13:18:09;27.80;51.30
53978;DHT22;39886;47.984;-1.586;2022-07-23T13:20:35;27.80;51.30
53978;DHT22;39886;47.984;-1.586;2022-07-23T13:23:02;27.80;51.30
53978;DHT22;39886;47.984;-1.586;2022-07-23T13:25:27;27.80;51.30
53978;DHT22;39886;47.984;-1.586;2022-07-23T13:27:53;27.80;51.20
53978;DHT22;39886;47.984;-1.586;2022-07-23T13:30:19;27.80;51.20
53978;DHT22;39886;47.984;-1.586;2022-07-23T13:32:44;27.80;51.20
53978;DHT22;39886;47.984;-1.586;2022-07-23T13:35:10;27.80;51.20
53978;DHT22;39886;47.984;-1.586;2022-07-23T13:37:37;27.80;51.20
53978;DHT22;39886;47.984;-1.586;2022-07-23T13:40:03;27.80;51.20
53978;DHT22;39886;47.984;-1.586;2022-07-23T13:42:29;27.80;51.20
53978;DHT22;39886;47.984;-1.586;2022-07-23T13:44:55;27.80;51.10
53978;DHT22;39886;47.984;-1.586;2022-07-23T13:47:21;27.80;51.10
53978;DHT22;39886;47.984;-1.586;2022-07-23T13:49:46;27.80;51.10
53978;DHT22;39886;47.984;-1.586;2022-07-23T13:52:12;27.80;51.00
53978;DHT22;39886;47.984;-1.586;2022-07-23T13:54:38;27.80;51.10
53978;DHT22;39886;47.984;-1.586;2022-07-23T13:57:04;27.90;51.10
53978;DHT22;39886;47.984;-1.586;2022-07-23T13:59:30;27.90;51.70
53978;DHT22;39886;47.984;-1.586;2022-07-23T14:01:55;27.90;51.00
53978;DHT22;39886;47.984;-1.586;2022-07-23T14:04:22;27.90;51.00
53978;DHT22;39886;47.984;-1.586;2022-07-23T14:06:48;27.90;51.00
53978;DHT22;39886;47.984;-1.586;2022-07-23T14:09:13;27.90;51.00
53978;DHT22;39886;47.984;-1.586;2022-07-23T14:11:39;27.90;51.00
53978;DHT22;39886;47.984;-1.586;2022-07-23T14:14:05;27.90;51.10
53978;DHT22;39886;47.984;-1.586;2022-07-23T14:16:31;27.90;51.10
53978;DHT22;39886;47.984;-1.586;2022-07-23T14:18:57;27.90;51.20
53978;DHT22;39886;47.984;-1.586;2022-07-23T14:21:22;27.90;51.20
53978;DHT22;39886;47.984;-1.586;2022-07-23T14:23:48;27.90;51.20
53978;DHT22;39886;47.984;-1.586;2022-07-23T14:26:14;27.90;51.10
53978;DHT22;39886;47.984;-1.586;2022-07-23T14:28:39;27.90;51.10
53978;DHT22;39886;47.984;-1.586;2022-07-23T14:31:05;27.90;51.10
53978;DHT22;39886;47.984;-1.586;2022-07-23T14:33:31;27.90;51.00
53978;DHT22;39886;47.984;-1.586;2022-07-23T14:35:57;28.00;51.10
53978;DHT22;39886;47.984;-1.586;2022-07-23T14:38:24;28.00;51.10
53978;DHT22;39886;47.984;-1.586;2022-07-23T14:40:50;28.00;51.00
53978;DHT22;39886;47.984;-1.586;2022-07-23T14:43:15;28.00;51.00
53978;DHT22;39886;47.984;-1.586;2022-07-23T14:45:41;28.00;51.00
53978;DHT22;39886;47.984;-1.586;2022-07-23T14:48:07;28.00;51.00
53978;DHT22;39886;47.984;-1.586;2022-07-23T14:50:33;28.00;50.90
53978;DHT22;39886;47.984;-1.586;2022-07-23T14:52:59;28.00;50.90
53978;DHT22;39886;47.984;-1.586;2022-07-23T14:55:25;28.00;50.90
53978;DHT22;39886;47.984;-1.586;2022-07-23T14:57:51;28.00;50.90
53978;DHT22;39886;47.984;-1.586;2022-07-23T15:00:16;28.00;50.90
53978;DHT22;39886;47.984;-1.586;2022-07-23T15:02:42;28.00;50.90
53978;DHT22;39886;47.984;-1.586;2022-07-23T15:05:09;28.00;50.90
53978;DHT22;39886;47.984;-1.586;2022-07-23T15:07:34;28.00;50.90
53978;DHT22;39886;47.984;-1.586;2022-07-23T15:10:00;28.00;50.90
53978;DHT22;39886;47.984;-1.586;2022-07-23T15:12:26;28.00;50.90
53978;DHT22;39886;47.984;-1.586;2022-07-23T15:14:52;28.00;50.90
53978;DHT22;39886;47.984;-1.586;2022-07-23T15:17:17;28.00;50.90
53978;DHT22;39886;47.984;-1.586;2022-07-23T15:19:43;28.00;50.90
53978;DHT22;39886;47.984;-1.586;2022-07-23T15:22:09;28.00;50.80
53978;DHT22;39886;47.984;-1.586;2022-07-23T15:24:34;28.00;50.80
53978;DHT22;39886;47.984;-1.586;2022-07-23T15:27:00;28.10;50.90
53978;DHT22;39886;47.984;-1.586;2022-07-23T15:29:26;28.10;50.90
53978;DHT22;39886;47.984;-1.586;2022-07-23T15:31:52;28.10;50.80
53978;DHT22;39886;47.984;-1.586;2022-07-23T15:34:18;28.10;50.70
53978;DHT22;39886;47.984;-1.586;2022-07-23T15:36:43;28.10;50.60
53978;DHT22;39886;47.984;-1.586;2022-07-23T15:39:09;28.10;50.60
53978;DHT22;39886;47.984;-1.586;2022-07-23T15:41:35;28.10;50.50
53978;DHT22;39886;47.984;-1.586;2022-07-23T15:44:01;28.20;50.50
53978;DHT22;39886;47.984;-1.586;2022-07-23T15:46:27;28.10;50.40
53978;DHT22;39886;47.984;-1.586;2022-07-23T15:48:53;28.20;50.40
53978;DHT22;39886;47.984;-1.586;2022-07-23T15:51:19;28.20;50.40
53978;DHT22;39886;47.984;-1.586;2022-07-23T15:53:45;28.20;50.30
53978;DHT22;39886;47.984;-1.586;2022-07-23T15:56:11;28.30;50.40
53978;DHT22;39886;47.984;-1.586;2022-07-23T15:58:37;28.30;50.40
53978;DHT22;39886;47.984;-1.586;2022-07-23T16:01:03;28.30;50.20
53978;DHT22;39886;47.984;-1.586;2022-07-23T16:03:33;28.30;50.20